sensor_id;sensor_type;location;lat;lon;timestamp;temperature;humidity
23991;DHT22;12205;50.600;4.608;2022-09-27T00:01:22;9.70;99.90
23991;DHT22;12205;50.600;4.608;2022-09-27T00:03:52;9.70;99.90
23991;DHT22;12205;50.600;4.608;2022-09-27T00:06:27;9.70;99.90
23991;DHT22;12205;50.600;4.608;2022-09-27T00:08:56;9.60;99.90
23991;DHT22;12205;50.600;4.608;2022-09-27T00:11:27;9.60;99.90
23991;DHT22;12205;50.600;4.608;2022-09-27T00:13:56;9.60;99.90
23991;DHT22;12205;50.600;4.608;2022-09-27T00:16:26;9.50;99.90
23991;DHT22;12205;50.600;4.608;2022-09-27T00:18:57;9.60;99.90
23991;DHT22;12205;50.600;4.608;2022-09-27T00:21:27;9.60;99.90
23991;DHT22;12205;50.600;4.608;2022-09-27T00:23:55;9.70;99.90
23991;DHT22;12205;50.600;4.608;2022-09-27T00:26:24;9.60;99.90
23991;DHT22;12205;50.600;4.608;2022-09-27T00:28:52;9.60;99.90
23991;DHT22;12205;50.600;4.608;2022-09-27T00:31:21;9.60;99.90
23991;DHT22;12205;50.600;4.608;2022-09-27T00:33:52;9.70;99.90
23991;DHT22;12205;50.600;4.608;2022-09-27T00:36:20;9.70;99.90
23991;DHT22;12205;50.600;4.608;2022-09-27T00:38:52;9.70;99.90
23991;DHT22;12205;50.600;4.608;2022-09-27T00:41:21;9.70;99.90
23991;DHT22;12205;50.600;4.608;2022-09-27T00:43:52;9.60;99.90
23991;DHT22;12205;50.600;4.608;2022-09-27T00:46:26;9.60;99.90
23991;DHT22;12205;50.600;4.608;2022-09-27T00:49:03;9.60;99.90
23991;DHT22;12205;50.600;4.608;2022-09-27T00:51:35;9.60;99.90
23991;DHT22;12205;50.600;4.608;2022-09-27T00:54:08;9.60;99.90
23991;DHT22;12205;50.600;4.608;2022-09-27T00:56:39;9.50;99.90
23991;DHT22;12205;50.600;4.608;2022-09-27T00:59:11;9.60;99.90
23991;DHT22;12205;50.600;4.608;2022-09-27T01:01:42;9.50;99.90
23991;DHT22;12205;50.600;4.608;2022-09-27T01:04:12;9.50;99.90
23991;DHT22;12205;50.600;4.608;2022-09-27T01:06:41;9.50;99.90
23991;DHT22;12205;50.600;4.608;2022-09-27T01:09:10;9.50;99.90
23991;DHT22;12205;50.600;4.608;2022-09-27T01:11:42;9.50;99.90
23991;DHT22;12205;50.600;4.608;2022-09-27T01:14:33;9.50;99.90
23991;DHT22;12205;50.600;4.608;2022-09-27T01:17:22;9.50;99.90
23991;DHT22;12205;50.600;4.608;2022-09-27T01:20:14;9.40;99.90
23991;DHT22;12205;50.600;4.608;2022-09-27T01:22:52;9.40;99.90
23991;DHT22;12205;50.600;4.608;2022-09-27T01:25:47;9.50;99.90
23991;DHT22;12205;50.600;4.608;2022-09-27T01:28:32;9.40;99.90
23991;DHT22;12205;50.600;4.608;2022-09-27T01:31:18;9.40;99.90
23991;DHT22;12205;50.600;4.608;2022-09-27T01:34:00;9.40;99.90
23991;DHT22;12205;50.600;4.608;2022-09-27T01:36:41;9.50;99.90
23991;DHT22;12205;50.600;4.608;2022-09-27T01:39:27;9.40;99.90
23991;DHT22;12205;50.600;4.608;2022-09-27T01:42:22;9.50;99.90
23991;DHT22;12205;50.600;4.608;2022-09-27T01:45:01;9.40;99.90
23991;DHT22;12205;50.600;4.608;2022-09-27T01:47:47;9.40;99.90
23991;DHT22;12205;50.600;4.608;2022-09-27T01:50:58;9.40;99.90
23991;DHT22;12205;50.600;4.608;2022-09-27T01:53:35;9.40;99.90
23991;DHT22;12205;50.600;4.608;2022-09-27T01:56:26;9.30;99.90
23991;DHT22;12205;50.600;4.608;2022-09-27T01:59:06;9.30;99.90
23991;DHT22;12205;50.600;4.608;2022-09-27T02:01:47;9.30;99.90
23991;DHT22;12205;50.600;4.608;2022-09-27T02:04:21;9.20;99.90
23991;DHT22;12205;50.600;4.608;2022-09-27T02:07:11;9.10;99.90
23991;DHT22;12205;50.600;4.608;2022-09-27T02:09:46;9.10;99.90
23991;DHT22;12205;50.600;4.608;2022-09-27T02:12:25;9.10;99.90
23991;DHT22;12205;50.600;4.608;2022-09-27T02:14:58;9.10;99.90
23991;DHT22;12205;50.600;4.608;2022-09-27T02:17:38;9.10;99.90
23991;DHT22;12205;50.600;4.608;2022-09-27T02:20:18;9.20;99.90
23991;DHT22;12205;50.600;4.608;2022-09-27T02:22:58;9.10;99.90
23991;DHT22;12205;50.600;4.608;2022-09-27T02:25:42;9.10;99.90
23991;DHT22;12205;50.600;4.608;2022-09-27T02:28:23;9.20;99.90
23991;DHT22;12205;50.600;4.608;2022-09-27T02:30:54;9.20;99.90
23991;DHT22;12205;50.600;4.608;2022-09-27T02:33:28;9.20;99.90
23991;DHT22;12205;50.600;4.608;2022-09-27T02:36:01;9.20;99.90
23991;DHT22;12205;50.600;4.608;2022-09-27T02:38:29;9.10;99.90
23991;DHT22;12205;50.600;4.608;2022-09-27T02:40:58;9.10;99.90
23991;DHT22;12205;50.600;4.608;2022-09-27T02:43:29;9.20;99.90
23991;DHT22;12205;50.600;4.608;2022-09-27T02:46:13;9.20;99.90
23991;DHT22;12205;50.600;4.608;2022-09-27T02:48:58;9.10;99.90
23991;DHT22;12205;50.600;4.608;2022-09-27T02:51:45;9.20;99.90
23991;DHT22;12205;50.600;4.608;2022-09-27T02:54:27;9.20;99.90
23991;DHT22;12205;50.600;4.608;2022-09-27T02:57:10;9.20;99.90
23991;DHT22;12205;50.600;4.608;2022-09-27T03:00:09;9.20;99.90
23991;DHT22;12205;50.600;4.608;2022-09-27T03:02:52;9.20;99.90
23991;DHT22;12205;50.600;4.608;2022-09-27T03:05:38;9.10;99.90
23991;DHT22;12205;50.600;4.608;2022-09-27T03:08:11;9.20;99.90
23991;DHT22;12205;50.600;4.608;2022-09-27T03:10:38;9.10;99.90
23991;DHT22;12205;50.600;4.608;2022-09-27T03:13:06;9.10;99.90
23991;DHT22;12205;50.600;4.608;2022-09-27T03:15:34;9.10;99.90
23991;DHT22;12205;50.600;4.608;2022-09-27T03:18:01;9.10;99.90
23991;DHT22;12205;50.600;4.608;2022-09-27T03:20:41;9.10;99.90
23991;DHT22;12205;50.600;4.608;2022-09-27T03:23:20;9.00;99.90
23991;DHT22;12205;50.600;4.608;2022-09-27T03:25:47;9.00;99.90
23991;DHT22;12205;50.600;4.608;2022-09-27T03:28:16;9.00;99.90
23991;DHT22;12205;50.600;4.608;2022-09-27T03:30:45;9.00;99.90
23991;DHT22;12205;50.600;4.608;2022-09-27T03:33:23;9.00;99.90
23991;DHT22;12205;50.600;4.608;2022-09-27T03:35:56;9.00;99.90
23991;DHT22;12205;50.600;4.608;2022-09-27T03:38:25;9.00;99.90
23991;DHT22;12205;50.600;4.608;2022-09-27T03:40:52;9.00;99.90
23991;DHT22;12205;50.600;4.608;2022-09-27T03:43:19;9.10;99.90
23991;DHT22;12205;50.600;4.608;2022-09-27T03:45:46;9.00;99.90
23991;DHT22;12205;50.600;4.608;2022-09-27T03:48:13;9.00;99.90
23991;DHT22;12205;50.600;4.608;2022-09-27T03:50:41;9.10;99.90
23991;DHT22;12205;50.600;4.608;2022-09-27T03:53:08;9.00;99.90
23991;DHT22;12205;50.600;4.608;2022-09-27T03:55:38;9.00;99.90
23991;DHT22;12205;50.600;4.608;2022-09-27T03:58:05;9.00;99.90
23991;DHT22;12205;50.600;4.608;2022-09-27T04:00:33;9.00;99.90
23991;DHT22;12205;50.600;4.608;2022-09-27T04:03:01;9.00;99.90
23991;DHT22;12205;50.600;4.608;2022-09-27T04:06:04;9.00;99.90
23991;DHT22;12205;50.600;4.608;2022-09-27T04:08:38;9.00;99.90
23991;DHT22;12205;50.600;4.608;2022-09-27T04:11:07;9.00;99.90
23991;DHT22;12205;50.600;4.608;2022-09-27T04:13:34;9.00;99.90
23991;DHT22;12205;50.600;4.608;2022-09-27T04:16:01;9.10;99.90
23991;DHT22;12205;50.600;4.608;2022-09-27T04:18:47;9.00;99.90
23991;DHT22;12205;50.600;4.608;2022-09-27T04:21:34;9.10;99.90
23991;DHT22;12205;50.600;4.608;2022-09-27T04:24:02;9.00;99.90
23991;DHT22;12205;50.600;4.608;2022-09-27T04:26:33;9.10;99.90
23991;DHT22;12205;50.600;4.608;2022-09-27T04:29:08;9.00;99.90
23991;DHT22;12205;50.600;4.608;2022-09-27T04:31:39;9.00;99.90
23991;DHT22;12205;50.600;4.608;2022-09-27T04:34:44;9.00;99.90
23991;DHT22;12205;50.600;4.608;2022-09-27T04:37:30;9.10;99.90
23991;DHT22;12205;50.600;4.608;2022-09-27T04:40:01;9.00;99.90
23991;DHT22;12205;50.600;4.608;2022-09-27T04:42:31;9.00;99.90
23991;DHT22;12205;50.600;4.608;2022-09-27T04:44:59;9.00;99.90
23991;DHT22;12205;50.600;4.608;2022-09-27T04:47:26;9.00;99.90
23991;DHT22;12205;50.600;4.608;2022-09-27T04:49:53;8.90;99.90
23991;DHT22;12205;50.600;4.608;2022-09-27T04:52:20;8.90;99.90
23991;DHT22;12205;50.600;4.608;2022-09-27T04:54:48;8.90;99.90
23991;DHT22;12205;50.600;4.608;2022-09-27T04:57:16;8.80;99.90
23991;DHT22;12205;50.600;4.608;2022-09-27T04:59:45;8.80;99.90
23991;DHT22;12205;50.600;4.608;2022-09-27T05:02:13;8.90;99.90
23991;DHT22;12205;50.600;4.608;2022-09-27T05:05:06;8.90;99.90
23991;DHT22;12205;50.600;4.608;2022-09-27T05:07:38;8.90;99.90
23991;DHT22;12205;50.600;4.608;2022-09-27T05:10:11;8.90;99.90
23991;DHT22;12205;50.600;4.608;2022-09-27T05:12:38;8.90;99.90
23991;DHT22;12205;50.600;4.608;2022-09-27T05:15:09;8.90;99.90
23991;DHT22;12205;50.600;4.608;2022-09-27T05:17:56;8.90;99.90
23991;DHT22;12205;50.600;4.608;2022-09-27T05:20:43;8.80;99.90
23991;DHT22;12205;50.600;4.608;2022-09-27T05:23:19;8.80;99.90
23991;DHT22;12205;50.600;4.608;2022-09-27T05:25:47;8.80;99.90
23991;DHT22;12205;50.600;4.608;2022-09-27T05:28:14;8.70;99.90
23991;DHT22;12205;50.600;4.608;2022-09-27T05:30:43;8.70;99.90
23991;DHT22;12205;50.600;4.608;2022-09-27T05:33:16;8.70;99.90
23991;DHT22;12205;50.600;4.608;2022-09-27T05:35:51;8.70;99.90
23991;DHT22;12205;50.600;4.608;2022-09-27T05:38:21;8.70;99.90
23991;DHT22;12205;50.600;4.608;2022-09-27T05:40:54;8.80;99.90
23991;DHT22;12205;50.600;4.608;2022-09-27T05:43:22;8.80;99.90
23991;DHT22;12205;50.600;4.608;2022-09-27T05:45:52;8.80;99.90
23991;DHT22;12205;50.600;4.608;2022-09-27T05:48:20;8.80;99.90
23991;DHT22;12205;50.600;4.608;2022-09-27T05:50:55;8.80;99.90
23991;DHT22;12205;50.600;4.608;2022-09-27T05:53:22;8.80;99.90
23991;DHT22;12205;50.600;4.608;2022-09-27T05:55:49;8.80;99.90
23991;DHT22;12205;50.600;4.608;2022-09-27T05:58:21;8.80;99.90
23991;DHT22;12205;50.600;4.608;2022-09-27T06:00:56;8.70;99.90
23991;DHT22;12205;50.600;4.608;2022-09-27T06:03:43;8.70;99.90
23991;DHT22;12205;50.600;4.608;2022-09-27T06:06:26;8.80;99.90
23991;DHT22;12205;50.600;4.608;2022-09-27T06:08:56;8.80;99.90
23991;DHT22;12205;50.600;4.608;2022-09-27T06:11:26;8.80;99.90
23991;DHT22;12205;50.600;4.608;2022-09-27T06:13:53;8.90;99.90
23991;DHT22;12205;50.600;4.608;2022-09-27T06:16:22;8.90;99.90
23991;DHT22;12205;50.600;4.608;2022-09-27T06:18:49;8.90;99.90
23991;DHT22;12205;50.600;4.608;2022-09-27T06:21:17;9.00;99.90
23991;DHT22;12205;50.600;4.608;2022-09-27T06:23:52;9.10;99.90
23991;DHT22;12205;50.600;4.608;2022-09-27T06:26:26;9.00;99.90
23991;DHT22;12205;50.600;4.608;2022-09-27T06:29:26;9.10;99.90
23991;DHT22;12205;50.600;4.608;2022-09-27T06:31:59;9.10;99.90
23991;DHT22;12205;50.600;4.608;2022-09-27T06:34:40;9.10;99.90
23991;DHT22;12205;50.600;4.608;2022-09-27T06:37:07;9.00;99.90
23991;DHT22;12205;50.600;4.608;2022-09-27T06:39:36;9.10;99.90
23991;DHT22;12205;50.600;4.608;2022-09-27T06:42:23;9.00;99.90
23991;DHT22;12205;50.600;4.608;2022-09-27T06:45:08;9.00;99.90
23991;DHT22;12205;50.600;4.608;2022-09-27T06:47:55;9.00;99.90
23991;DHT22;12205;50.600;4.608;2022-09-27T06:50:29;9.00;99.90
23991;DHT22;12205;50.600;4.608;2022-09-27T06:52:57;9.00;99.90
23991;DHT22;12205;50.600;4.608;2022-09-27T06:55:25;9.00;99.90
23991;DHT22;12205;50.600;4.608;2022-09-27T06:57:53;9.00;99.90
23991;DHT22;12205;50.600;4.608;2022-09-27T07:00:43;8.90;99.90
23991;DHT22;12205;50.600;4.608;2022-09-27T07:03:42;8.90;99.90
23991;DHT22;12205;50.600;4.608;2022-09-27T07:06:18;8.90;99.90
23991;DHT22;12205;50.600;4.608;2022-09-27T07:09:11;8.90;99.90
23991;DHT22;12205;50.600;4.608;2022-09-27T07:11:39;8.90;99.90
23991;DHT22;12205;50.600;4.608;2022-09-27T07:14:08;8.90;99.90
23991;DHT22;12205;50.600;4.608;2022-09-27T07:16:36;8.90;99.90
23991;DHT22;12205;50.600;4.608;2022-09-27T07:19:05;8.90;99.90
23991;DHT22;12205;50.600;4.608;2022-09-27T07:21:36;9.00;99.90
23991;DHT22;12205;50.600;4.608;2022-09-27T07:24:04;9.00;99.90
23991;DHT22;12205;50.600;4.608;2022-09-27T07:26:32;9.10;99.90
23991;DHT22;12205;50.600;4.608;2022-09-27T07:28:59;9.00;99.90
23991;DHT22;12205;50.600;4.608;2022-09-27T07:31:28;9.00;99.90
23991;DHT22;12205;50.600;4.608;2022-09-27T07:33:55;9.00;99.90
23991;DHT22;12205;50.600;4.608;2022-09-27T07:36:24;9.10;99.90
23991;DHT22;12205;50.600;4.608;2022-09-27T07:38:51;9.10;99.90
23991;DHT22;12205;50.600;4.608;2022-09-27T07:41:19;9.10;99.90
23991;DHT22;12205;50.600;4.608;2022-09-27T07:43:46;9.20;99.90
23991;DHT22;12205;50.600;4.608;2022-09-27T07:46:14;9.20;99.90
23991;DHT22;12205;50.600;4.608;2022-09-27T07:49:13;9.20;99.90
23991;DHT22;12205;50.600;4.608;2022-09-27T07:51:51;9.10;99.90
23991;DHT22;12205;50.600;4.608;2022-09-27T07:54:33;9.10;99.90
23991;DHT22;12205;50.600;4.608;2022-09-27T07:57:04;9.10;99.90
23991;DHT22;12205;50.600;4.608;2022-09-27T07:59:38;9.10;99.90
23991;DHT22;12205;50.600;4.608;2022-09-27T08:02:12;9.10;99.90
23991;DHT22;12205;50.600;4.608;2022-09-27T08:04:42;9.20;99.90
23991;DHT22;12205;50.600;4.608;2022-09-27T08:07:13;9.20;99.90
23991;DHT22;12205;50.600;4.608;2022-09-27T08:09:44;9.20;99.90
23991;DHT22;12205;50.600;4.608;2022-09-27T08:12:12;9.20;99.90
23991;DHT22;12205;50.600;4.608;2022-09-27T08:14:39;9.20;99.90
23991;DHT22;12205;50.600;4.608;2022-09-27T08:17:09;9.20;99.90
23991;DHT22;12205;50.600;4.608;2022-09-27T08:20:11;9.30;99.90
23991;DHT22;12205;50.600;4.608;2022-09-27T08:23:07;9.40;99.90
23991;DHT22;12205;50.600;4.608;2022-09-27T08:25:37;9.50;99.90
23991;DHT22;12205;50.600;4.608;2022-09-27T08:28:25;9.50;99.90
23991;DHT22;12205;50.600;4.608;2022-09-27T08:31:15;9.60;99.90
23991;DHT22;12205;50.600;4.608;2022-09-27T08:33:43;9.70;99.90
23991;DHT22;12205;50.600;4.608;2022-09-27T08:36:10;9.80;99.90
23991;DHT22;12205;50.600;4.608;2022-09-27T08:38:39;9.80;99.90
23991;DHT22;12205;50.600;4.608;2022-09-27T08:41:08;9.80;99.90
23991;DHT22;12205;50.600;4.608;2022-09-27T08:43:47;9.90;99.90
23991;DHT22;12205;50.600;4.608;2022-09-27T08:46:28;9.80;99.90
23991;DHT22;12205;50.600;4.608;2022-09-27T08:49:04;10.00;99.90
23991;DHT22;12205;50.600;4.608;2022-09-27T08:51:36;9.90;99.90
23991;DHT22;12205;50.600;4.608;2022-09-27T08:54:12;9.90;99.90
23991;DHT22;12205;50.600;4.608;2022-09-27T08:56:45;9.90;99.90
23991;DHT22;12205;50.600;4.608;2022-09-27T08:59:15;10.00;99.90
23991;DHT22;12205;50.600;4.608;2022-09-27T09:01:46;9.90;99.90
23991;DHT22;12205;50.600;4.608;2022-09-27T09:04:26;9.80;99.90
23991;DHT22;12205;50.600;4.608;2022-09-27T09:07:06;9.90;99.90
23991;DHT22;12205;50.600;4.608;2022-09-27T09:09:46;9.90;99.90
23991;DHT22;12205;50.600;4.608;2022-09-27T09:12:35;10.00;99.90
23991;DHT22;12205;50.600;4.608;2022-09-27T09:15:46;10.10;99.90
23991;DHT22;12205;50.600;4.608;2022-09-27T09:18:56;10.30;99.90
23991;DHT22;12205;50.600;4.608;2022-09-27T09:21:49;10.30;99.90
23991;DHT22;12205;50.600;4.608;2022-09-27T09:24:37;10.50;99.90
23991;DHT22;12205;50.600;4.608;2022-09-27T09:27:23;10.40;99.90
23991;DHT22;12205;50.600;4.608;2022-09-27T09:30:17;10.30;99.90
23991;DHT22;12205;50.600;4.608;2022-09-27T09:33:09;10.10;99.90
23991;DHT22;12205;50.600;4.608;2022-09-27T09:35:44;10.20;99.90
23991;DHT22;12205;50.600;4.608;2022-09-27T09:38:21;10.20;99.90
23991;DHT22;12205;50.600;4.608;2022-09-27T09:40:59;10.20;99.90
23991;DHT22;12205;50.600;4.608;2022-09-27T09:43:34;10.20;99.90
23991;DHT22;12205;50.600;4.608;2022-09-27T09:46:10;10.20;99.90
23991;DHT22;12205;50.600;4.608;2022-09-27T09:48:44;10.10;99.90
23991;DHT22;12205;50.600;4.608;2022-09-27T09:51:19;10.20;99.90
23991;DHT22;12205;50.600;4.608;2022-09-27T09:53:55;10.00;99.90
23991;DHT22;12205;50.600;4.608;2022-09-27T09:56:34;10.10;99.90
23991;DHT22;12205;50.600;4.608;2022-09-27T09:59:11;10.20;99.90
23991;DHT22;12205;50.600;4.608;2022-09-27T10:01:46;10.40;99.90
23991;DHT22;12205;50.600;4.608;2022-09-27T10:04:18;10.50;99.90
23991;DHT22;12205;50.600;4.608;2022-09-27T10:06:47;10.60;99.90
23991;DHT22;12205;50.600;4.608;2022-09-27T10:09:17;10.50;99.90
23991;DHT22;12205;50.600;4.608;2022-09-27T10:12:10;10.50;99.90
23991;DHT22;12205;50.600;4.608;2022-09-27T10:14:38;10.70;99.90
23991;DHT22;12205;50.600;4.608;2022-09-27T10:17:11;10.90;99.90
23991;DHT22;12205;50.600;4.608;2022-09-27T10:19:43;11.00;99.90
23991;DHT22;12205;50.600;4.608;2022-09-27T10:22:17;11.10;99.90
23991;DHT22;12205;50.600;4.608;2022-09-27T10:24:56;11.20;99.90
23991;DHT22;12205;50.600;4.608;2022-09-27T10:27:47;11.40;99.90
23991;DHT22;12205;50.600;4.608;2022-09-27T10:30:27;11.50;99.90
23991;DHT22;12205;50.600;4.608;2022-09-27T10:32:58;11.60;99.90
23991;DHT22;12205;50.600;4.608;2022-09-27T10:35:55;11.70;99.90
23991;DHT22;12205;50.600;4.608;2022-09-27T10:38:29;11.80;99.90
23991;DHT22;12205;50.600;4.608;2022-09-27T10:41:20;11.90;99.90
23991;DHT22;12205;50.600;4.608;2022-09-27T10:44:18;11.90;99.90
23991;DHT22;12205;50.600;4.608;2022-09-27T10:47:00;11.80;99.90
23991;DHT22;12205;50.600;4.608;2022-09-27T10:49:49;11.80;99.90
23991;DHT22;12205;50.600;4.608;2022-09-27T10:52:34;12.00;99.90
23991;DHT22;12205;50.600;4.608;2022-09-27T10:55:07;12.10;99.90
23991;DHT22;12205;50.600;4.608;2022-09-27T10:57:48;12.00;99.90
23991;DHT22;12205;50.600;4.608;2022-09-27T11:00:22;12.20;99.90
23991;DHT22;12205;50.600;4.608;2022-09-27T11:02:53;12.30;99.90
23991;DHT22;12205;50.600;4.608;2022-09-27T11:05:31;12.20;99.90
23991;DHT22;12205;50.600;4.608;2022-09-27T11:08:18;12.20;99.90
23991;DHT22;12205;50.600;4.608;2022-09-27T11:11:13;12.00;99.90
23991;DHT22;12205;50.600;4.608;2022-09-27T11:13:57;11.90;99.90
23991;DHT22;12205;50.600;4.608;2022-09-27T11:16:47;11.60;99.90
23991;DHT22;12205;50.600;4.608;2022-09-27T11:19:40;11.60;99.90
23991;DHT22;12205;50.600;4.608;2022-09-27T11:22:51;11.50;99.90
23991;DHT22;12205;50.600;4.608;2022-09-27T11:25:40;11.60;99.90
23991;DHT22;12205;50.600;4.608;2022-09-27T11:28:26;11.50;99.90
23991;DHT22;12205;50.600;4.608;2022-09-27T11:31:10;11.60;99.90
23991;DHT22;12205;50.600;4.608;2022-09-27T11:33:57;11.80;99.90
23991;DHT22;12205;50.600;4.608;2022-09-27T11:36:47;11.90;99.90
23991;DHT22;12205;50.600;4.608;2022-09-27T11:39:29;12.00;99.90
23991;DHT22;12205;50.600;4.608;2022-09-27T11:42:09;12.00;99.90
23991;DHT22;12205;50.600;4.608;2022-09-27T11:45:13;12.10;99.90
23991;DHT22;12205;50.600;4.608;2022-09-27T11:47:54;12.20;99.90
23991;DHT22;12205;50.600;4.608;2022-09-27T11:51:04;12.10;99.90
23991;DHT22;12205;50.600;4.608;2022-09-27T11:54:11;12.30;99.90
23991;DHT22;12205;50.600;4.608;2022-09-27T11:56:53;12.40;99.90
23991;DHT22;12205;50.600;4.608;2022-09-27T11:59:46;12.70;99.90
23991;DHT22;12205;50.600;4.608;2022-09-27T12:03:08;13.00;99.90
23991;DHT22;12205;50.600;4.608;2022-09-27T12:06:00;13.10;99.90
23991;DHT22;12205;50.600;4.608;2022-09-27T12:08:51;12.90;99.90
23991;DHT22;12205;50.600;4.608;2022-09-27T12:11:33;12.80;99.90
23991;DHT22;12205;50.600;4.608;2022-09-27T12:14:10;12.60;99.90
23991;DHT22;12205;50.600;4.608;2022-09-27T12:16:47;12.50;99.90
23991;DHT22;12205;50.600;4.608;2022-09-27T12:19:21;12.50;99.90
23991;DHT22;12205;50.600;4.608;2022-09-27T12:22:04;12.50;99.90
23991;DHT22;12205;50.600;4.608;2022-09-27T12:24:38;12.40;99.90
23991;DHT22;12205;50.600;4.608;2022-09-27T12:27:36;12.10;99.90
23991;DHT22;12205;50.600;4.608;2022-09-27T12:30:12;11.50;99.90
23991;DHT22;12205;50.600;4.608;2022-09-27T12:32:50;10.60;99.90
23991;DHT22;12205;50.600;4.608;2022-09-27T12:35:24;10.00;99.90
23991;DHT22;12205;50.600;4.608;2022-09-27T12:38:00;9.60;99.90
23991;DHT22;12205;50.600;4.608;2022-09-27T12:40:34;9.50;99.90
23991;DHT22;12205;50.600;4.608;2022-09-27T12:43:13;9.70;99.90
23991;DHT22;12205;50.600;4.608;2022-09-27T12:46:04;9.80;99.90
23991;DHT22;12205;50.600;4.608;2022-09-27T12:48:45;10.20;99.90
23991;DHT22;12205;50.600;4.608;2022-09-27T12:51:20;12.10;99.90
23991;DHT22;12205;50.600;4.608;2022-09-27T12:54:07;13.20;99.90
23991;DHT22;12205;50.600;4.608;2022-09-27T12:56:55;14.60;99.90
23991;DHT22;12205;50.600;4.608;2022-09-27T12:59:45;15.60;99.90
23991;DHT22;12205;50.600;4.608;2022-09-27T13:02:56;16.90;99.90
23991;DHT22;12205;50.600;4.608;2022-09-27T13:06:24;17.70;99.90
23991;DHT22;12205;50.600;4.608;2022-09-27T13:12:12;19.60;99.90
23991;DHT22;12205;50.600;4.608;2022-09-27T13:14:57;18.80;99.90
23991;DHT22;12205;50.600;4.608;2022-09-27T13:17:49;17.30;99.90
23991;DHT22;12205;50.600;4.608;2022-09-27T13:20:48;16.20;99.90
23991;DHT22;12205;50.600;4.608;2022-09-27T13:23:50;15.50;99.90
23991;DHT22;12205;50.600;4.608;2022-09-27T13:26:45;14.80;99.90
23991;DHT22;12205;50.600;4.608;2022-09-27T13:29:23;14.30;99.90
23991;DHT22;12205;50.600;4.608;2022-09-27T13:32:19;13.90;99.90
23991;DHT22;12205;50.600;4.608;2022-09-27T13:35:09;13.60;99.90
23991;DHT22;12205;50.600;4.608;2022-09-27T13:37:52;13.40;99.90
23991;DHT22;12205;50.600;4.608;2022-09-27T13:40:32;13.60;99.90
23991;DHT22;12205;50.600;4.608;2022-09-27T13:46:29;15.30;99.90
23991;DHT22;12205;50.600;4.608;2022-09-27T13:49:03;15.90;99.90
23991;DHT22;12205;50.600;4.608;2022-09-27T13:52:16;15.60;99.90
23991;DHT22;12205;50.600;4.608;2022-09-27T13:55:02;15.20;99.90
23991;DHT22;12205;50.600;4.608;2022-09-27T13:57:50;14.80;99.90
23991;DHT22;12205;50.600;4.608;2022-09-27T14:00:28;15.50;99.90
23991;DHT22;12205;50.600;4.608;2022-09-27T14:03:04;16.00;99.90
23991;DHT22;12205;50.600;4.608;2022-09-27T14:05:46;15.50;99.90
23991;DHT22;12205;50.600;4.608;2022-09-27T14:08:22;14.90;99.90
23991;DHT22;12205;50.600;4.608;2022-09-27T14:10:55;14.70;99.90
23991;DHT22;12205;50.600;4.608;2022-09-27T14:13:25;15.10;99.90
23991;DHT22;12205;50.600;4.608;2022-09-27T14:16:03;16.90;99.90
23991;DHT22;12205;50.600;4.608;2022-09-27T14:18:42;16.90;99.90
23991;DHT22;12205;50.600;4.608;2022-09-27T14:21:24;16.60;99.90
23991;DHT22;12205;50.600;4.608;2022-09-27T14:24:23;17.00;99.90
23991;DHT22;12205;50.600;4.608;2022-09-27T14:27:12;16.60;99.90
23991;DHT22;12205;50.600;4.608;2022-09-27T14:29:46;18.40;99.90
23991;DHT22;12205;50.600;4.608;2022-09-27T14:32:24;21.20;99.90
23991;DHT22;12205;50.600;4.608;2022-09-27T14:35:05;22.10;99.90
23991;DHT22;12205;50.600;4.608;2022-09-27T14:37:59;23.30;99.90
23991;DHT22;12205;50.600;4.608;2022-09-27T14:40:30;21.80;99.90
23991;DHT22;12205;50.600;4.608;2022-09-27T14:43:05;20.40;99.90
23991;DHT22;12205;50.600;4.608;2022-09-27T14:45:38;19.00;99.90
23991;DHT22;12205;50.600;4.608;2022-09-27T14:48:19;18.00;99.90
23991;DHT22;12205;50.600;4.608;2022-09-27T14:50:53;17.40;99.90
23991;DHT22;12205;50.600;4.608;2022-09-27T14:53:26;16.80;99.90
23991;DHT22;12205;50.600;4.608;2022-09-27T14:55:56;16.10;99.90
23991;DHT22;12205;50.600;4.608;2022-09-27T14:58:24;15.80;99.90
23991;DHT22;12205;50.600;4.608;2022-09-27T15:00:53;15.70;99.90
23991;DHT22;12205;50.600;4.608;2022-09-27T15:03:26;15.40;99.90
23991;DHT22;12205;50.600;4.608;2022-09-27T15:05:58;15.00;99.90
23991;DHT22;12205;50.600;4.608;2022-09-27T15:08:27;14.80;99.90
23991;DHT22;12205;50.600;4.608;2022-09-27T15:10:58;14.50;99.90
23991;DHT22;12205;50.600;4.608;2022-09-27T15:13:27;14.30;99.90
23991;DHT22;12205;50.600;4.608;2022-09-27T15:15:56;14.00;99.90
23991;DHT22;12205;50.600;4.608;2022-09-27T15:18:40;13.60;99.90
23991;DHT22;12205;50.600;4.608;2022-09-27T15:21:09;13.60;99.90
23991;DHT22;12205;50.600;4.608;2022-09-27T15:23:40;13.40;99.90
23991;DHT22;12205;50.600;4.608;2022-09-27T15:26:12;13.40;99.90
23991;DHT22;12205;50.600;4.608;2022-09-27T15:28:43;13.50;99.90
23991;DHT22;12205;50.600;4.608;2022-09-27T15:31:12;13.60;99.90
23991;DHT22;12205;50.600;4.608;2022-09-27T15:33:41;13.60;99.90
23991;DHT22;12205;50.600;4.608;2022-09-27T15:36:49;13.90;99.90
23991;DHT22;12205;50.600;4.608;2022-09-27T15:39:24;14.40;99.90
23991;DHT22;12205;50.600;4.608;2022-09-27T15:42:03;14.40;99.90
23991;DHT22;12205;50.600;4.608;2022-09-27T15:44:42;14.50;99.90
23991;DHT22;12205;50.600;4.608;2022-09-27T15:47:40;14.60;99.90
23991;DHT22;12205;50.600;4.608;2022-09-27T15:50:37;14.60;99.90
23991;DHT22;12205;50.600;4.608;2022-09-27T15:53:06;15.40;99.90
23991;DHT22;12205;50.600;4.608;2022-09-27T15:55:38;16.30;99.90
23991;DHT22;12205;50.600;4.608;2022-09-27T15:58:12;17.00;99.90
23991;DHT22;12205;50.600;4.608;2022-09-27T16:00:52;17.20;99.90
23991;DHT22;12205;50.600;4.608;2022-09-27T16:03:21;16.60;99.90
23991;DHT22;12205;50.600;4.608;2022-09-27T16:05:53;16.60;99.90
23991;DHT22;12205;50.600;4.608;2022-09-27T16:08:22;16.90;99.90
23991;DHT22;12205;50.600;4.608;2022-09-27T16:10:51;17.30;99.90
23991;DHT22;12205;50.600;4.608;2022-09-27T16:13:20;17.50;99.90
23991;DHT22;12205;50.600;4.608;2022-09-27T16:15:48;17.50;99.90
23991;DHT22;12205;50.600;4.608;2022-09-27T16:18:16;17.70;99.90
23991;DHT22;12205;50.600;4.608;2022-09-27T16:20:44;17.60;99.90
23991;DHT22;12205;50.600;4.608;2022-09-27T16:23:12;18.00;99.90
23991;DHT22;12205;50.600;4.608;2022-09-27T16:25:41;17.50;99.90
23991;DHT22;12205;50.600;4.608;2022-09-27T16:28:10;16.80;99.90
23991;DHT22;12205;50.600;4.608;2022-09-27T16:30:37;16.70;99.90
23991;DHT22;12205;50.600;4.608;2022-09-27T16:33:04;17.20;99.90
23991;DHT22;12205;50.600;4.608;2022-09-27T16:35:31;17.70;99.90
23991;DHT22;12205;50.600;4.608;2022-09-27T16:37:58;17.70;99.90
23991;DHT22;12205;50.600;4.608;2022-09-27T16:40:27;17.10;99.90
23991;DHT22;12205;50.600;4.608;2022-09-27T16:42:55;16.60;99.90
23991;DHT22;12205;50.600;4.608;2022-09-27T16:45:22;16.20;99.90
23991;DHT22;12205;50.600;4.608;2022-09-27T16:47:57;15.90;99.90
23991;DHT22;12205;50.600;4.608;2022-09-27T16:50:25;15.60;99.90
23991;DHT22;12205;50.600;4.608;2022-09-27T16:53:10;15.40;99.90